aviador You're here:

HSSS Decoded Metar

KHARTOUM in SUDAN
Report Time2017-10-22 06:00:00
UTC Time2017-10-22 06:36:20
Flight Rules vfr VFR
Wind360° at 10 kt
W.Decomp.*RWY 36: 10.0 kt HW 0.3 kt LCW
Visibility9999 m
Phenomena:N/A
Clouds:N/A
Expected CloudBase > 10,800 ft AGL from Temp-Dew spread
CeilingNone
Temp30°C (ISA +17)
Dew Point03°C (18% RH)
Heat Index28.2°C
AAT24.9°C
QNH1013 hPa
Density Alt3,353 ft
Elevation1,247 ft
Report Wrong Elevation
Raw Report
HSSS 220600Z 36010KT CAVOK 30/03 Q1013 NOSIG=

Extra information for HSSS:More info

Metar Taf Metar & Taf Last 4 Metars F.Rules Stats Wind Profile Meteogram Temp Stats Airport Information Weather charts Add Link Nearby VenuesMetar ALERT Operation Metar Decoded Social comments